createdAt,value
2022-11-06T00:01:41.908Z,6.25
2022-11-06T00:04:08.509Z,6.23
2022-11-06T00:06:55.355Z,6.28
2022-11-06T00:09:22.258Z,6.26
2022-11-06T00:11:50.510Z,6.26
2022-11-06T00:14:18.067Z,6.21
2022-11-06T00:16:46.361Z,6.24
2022-11-06T00:19:13.596Z,6.22
2022-11-06T00:21:40.712Z,6.23
2022-11-06T00:24:08.064Z,6.24
2022-11-06T00:26:35.517Z,6.16
2022-11-06T00:29:03.275Z,6.17
2022-11-06T00:31:32.986Z,6.17
2022-11-06T00:34:01.061Z,6.19
2022-11-06T00:36:32.795Z,6.20
2022-11-06T00:39:00.224Z,6.23
2022-11-06T00:41:27.636Z,6.24
2022-11-06T00:43:57.351Z,6.29
2022-11-06T00:46:24.698Z,6.28
2022-11-06T00:48:53.159Z,6.28
2022-11-06T00:51:26.765Z,6.29
2022-11-06T00:53:59.414Z,6.26
2022-11-06T00:56:26.696Z,6.29
2022-11-06T00:58:54.193Z,6.28
2022-11-06T01:01:23.743Z,6.29
2022-11-06T01:04:02.200Z,6.27
2022-11-06T01:06:32.901Z,6.28
2022-11-06T01:09:00.523Z,6.28
2022-11-06T01:11:52.555Z,6.34
2022-11-06T01:14:21.489Z,6.28
2022-11-06T01:16:48.539Z,6.29
2022-11-06T01:19:17.485Z,6.27
2022-11-06T01:21:45.979Z,6.30
2022-11-06T01:24:15.841Z,6.32
2022-11-06T01:27:04.813Z,6.25
2022-11-06T01:29:29.700Z,6.27
2022-11-06T01:31:56.262Z,6.28
2022-11-06T01:34:22.975Z,6.27
2022-11-06T01:36:49.568Z,6.19
2022-11-06T01:39:16.463Z,6.24
2022-11-06T01:41:50.977Z,6.30
2022-11-06T01:44:35.500Z,6.30
2022-11-06T01:47:04.600Z,6.31
2022-11-06T01:49:35.196Z,6.29
2022-11-06T01:52:07.883Z,6.27
2022-11-06T01:54:37.480Z,6.28
2022-11-06T01:57:04.847Z,6.32
2022-11-06T01:59:35.958Z,6.33
2022-11-06T02:02:02.970Z,6.25
2022-11-06T02:04:34.497Z,6.25
2022-11-06T02:07:01.189Z,6.25
2022-11-06T02:09:29.899Z,6.18
2022-11-06T02:12:14.073Z,6.23
2022-11-06T02:15:02.781Z,6.24
2022-11-06T02:17:29.317Z,6.23
2022-11-06T02:20:02.328Z,6.25
2022-11-06T02:22:31.540Z,6.26
2022-11-06T02:25:15.994Z,6.25
2022-11-06T02:27:48.367Z,6.26
2022-11-06T02:30:16.906Z,6.25
2022-11-06T02:32:59.178Z,6.21
2022-11-06T02:35:41.460Z,6.23
2022-11-06T02:38:12.677Z,6.22
2022-11-06T02:40:48.065Z,6.21
2022-11-06T02:43:16.681Z,6.12
2022-11-06T02:45:51.026Z,6.21
2022-11-06T02:48:21.698Z,6.17
2022-11-06T02:50:51.121Z,6.17
2022-11-06T02:53:23.145Z,6.21
2022-11-06T02:55:52.001Z,6.24
2022-11-06T02:58:25.089Z,6.26
2022-11-06T03:00:59.143Z,6.21
2022-11-06T03:03:30.116Z,6.26
2022-11-06T03:06:20.810Z,6.22
2022-11-06T03:09:01.463Z,6.19
2022-11-06T03:11:39.098Z,6.18
2022-11-06T03:14:14.596Z,6.16
2022-11-06T03:17:18.572Z,6.20
2022-11-06T03:19:48.011Z,6.20
2022-11-06T03:22:33.877Z,6.21
2022-11-06T03:25:07.654Z,6.18
2022-11-06T03:27:43.128Z,6.12
2022-11-06T03:30:16.503Z,6.16
2022-11-06T03:32:55.420Z,6.17
2022-11-06T03:35:38.914Z,6.20
2022-11-06T03:38:07.686Z,6.16
2022-11-06T03:40:41.459Z,6.20
2022-11-06T03:43:10.538Z,6.22
2022-11-06T03:45:40.381Z,6.18
2022-11-06T03:48:20.050Z,6.16
2022-11-06T03:51:07.963Z,6.17
2022-11-06T03:53:46.591Z,6.16
2022-11-06T03:56:21.033Z,6.10
2022-11-06T03:58:49.878Z,6.13
2022-11-06T04:01:23.747Z,6.10
2022-11-06T04:03:59.836Z,6.10
2022-11-06T04:06:37.580Z,6.06
2022-11-06T04:09:25.110Z,6.08
2022-11-06T04:12:12.035Z,6.09
2022-11-06T04:14:43.264Z,6.15
2022-11-06T04:17:12.930Z,6.16
2022-11-06T04:19:47.004Z,6.14
2022-11-06T04:22:45.410Z,6.16
2022-11-06T04:25:55.495Z,6.07
2022-11-06T04:28:48.056Z,6.11
2022-11-06T04:31:34.861Z,6.09
2022-11-06T04:34:09.344Z,6.11
2022-11-06T04:36:50.517Z,6.09
2022-11-06T04:39:32.329Z,6.07
2022-11-06T04:42:43.585Z,6.07
2022-11-06T04:45:21.289Z,6.07
2022-11-06T04:47:49.638Z,6.07
2022-11-06T04:50:19.080Z,6.12
2022-11-06T04:52:47.347Z,6.09
2022-11-06T04:55:14.048Z,6.07
2022-11-06T04:57:40.602Z,6.06
2022-11-06T05:00:08.116Z,6.08
2022-11-06T05:02:34.773Z,6.09
2022-11-06T05:05:01.316Z,6.09
2022-11-06T05:07:27.903Z,6.09
2022-11-06T05:09:54.484Z,6.15
2022-11-06T05:12:21.030Z,6.15
2022-11-06T05:14:47.584Z,6.20
2022-11-06T05:17:14.288Z,6.19
2022-11-06T05:19:40.822Z,6.19
2022-11-06T05:22:26.080Z,6.19
2022-11-06T05:24:52.654Z,6.24
2022-11-06T05:27:19.240Z,6.17
2022-11-06T05:29:46.297Z,6.22
2022-11-06T05:32:12.832Z,6.21
2022-11-06T05:34:39.375Z,6.17
2022-11-06T05:37:05.951Z,6.17
2022-11-06T05:39:32.821Z,6.17
2022-11-06T05:42:00.632Z,6.23
2022-11-06T05:44:27.696Z,6.24
2022-11-06T05:46:54.235Z,6.24
2022-11-06T05:49:20.800Z,6.25
2022-11-06T05:51:48.003Z,6.32
2022-11-06T05:54:15.207Z,6.33
2022-11-06T05:56:41.801Z,6.32
2022-11-06T05:59:09.506Z,6.36
2022-11-06T06:01:36.158Z,6.32
2022-11-06T06:04:05.508Z,6.26
2022-11-06T06:06:32.562Z,6.32
2022-11-06T06:08:59.101Z,6.36
2022-11-06T06:11:25.705Z,6.40
2022-11-06T06:13:52.281Z,6.37
2022-11-06T06:16:18.853Z,6.45
2022-11-06T06:18:45.455Z,6.45
2022-11-06T06:21:12.030Z,6.46
2022-11-06T06:23:38.564Z,6.45
2022-11-06T06:26:05.699Z,6.48
2022-11-06T06:28:32.934Z,6.51
2022-11-06T06:31:01.875Z,6.51
2022-11-06T06:33:28.790Z,6.53
2022-11-06T06:35:55.384Z,6.54
2022-11-06T06:38:21.954Z,6.57
2022-11-06T06:40:48.590Z,6.58
2022-11-06T06:43:15.182Z,6.62
2022-11-06T06:45:41.747Z,6.66
2022-11-06T06:48:09.253Z,6.70
2022-11-06T06:50:35.848Z,6.76
2022-11-06T06:53:02.611Z,6.80
2022-11-06T06:55:29.451Z,6.72
2022-11-06T06:58:01.943Z,6.85
2022-11-06T07:00:29.474Z,6.81
2022-11-06T07:02:56.383Z,6.81
2022-11-06T07:05:24.012Z,6.79
2022-11-06T07:07:50.653Z,6.85
2022-11-06T07:10:17.289Z,6.86
2022-11-06T07:12:43.950Z,6.88
2022-11-06T07:15:10.902Z,6.86
2022-11-06T07:17:37.821Z,6.90
2022-11-06T07:20:05.676Z,6.95
2022-11-06T07:22:36.992Z,6.95
2022-11-06T07:25:05.865Z,6.91
2022-11-06T07:27:33.629Z,6.92
2022-11-06T07:30:00.634Z,6.86
2022-11-06T07:32:28.138Z,6.85
2022-11-06T07:34:55.465Z,6.86
2022-11-06T07:37:22.272Z,6.88
2022-11-06T07:39:49.051Z,6.93
2022-11-06T07:42:15.628Z,6.81
2022-11-06T07:44:42.161Z,6.86
2022-11-06T07:47:08.703Z,6.94
2022-11-06T07:49:35.305Z,6.96
2022-11-06T07:52:01.877Z,6.98
2022-11-06T07:54:28.415Z,7.03
2022-11-06T07:56:54.992Z,7.03
2022-11-06T07:59:21.607Z,7.05
2022-11-06T08:01:48.530Z,7.04
2022-11-06T08:04:16.628Z,7.03
2022-11-06T08:06:43.169Z,7.00
2022-11-06T08:09:10.276Z,7.02
2022-11-06T08:11:36.987Z,7.04
2022-11-06T08:14:03.791Z,7.05
2022-11-06T08:16:30.979Z,7.03
2022-11-06T08:18:58.714Z,7.05
2022-11-06T08:21:25.585Z,7.12
2022-11-06T08:23:52.165Z,7.23
2022-11-06T08:26:18.943Z,7.16
2022-11-06T08:28:45.578Z,7.18
2022-11-06T08:31:12.263Z,7.17
2022-11-06T08:33:39.634Z,7.16
2022-11-06T08:36:08.098Z,7.06
2022-11-06T08:38:35.652Z,7.08
2022-11-06T08:41:06.836Z,7.11
2022-11-06T08:43:33.405Z,7.11
2022-11-06T08:46:00.412Z,7.08
2022-11-06T08:48:27.630Z,7.09
2022-11-06T08:50:54.186Z,7.04
2022-11-06T08:53:20.787Z,6.93
2022-11-06T08:55:47.764Z,6.98
2022-11-06T08:58:14.447Z,7.04
2022-11-06T09:00:41.276Z,7.03
2022-11-06T09:03:12.872Z,7.10
2022-11-06T09:05:42.195Z,7.17
2022-11-06T09:08:09.705Z,7.17
2022-11-06T09:10:40.559Z,7.16
2022-11-06T09:13:07.399Z,7.26
2022-11-06T09:15:34.282Z,7.15
2022-11-06T09:18:00.941Z,7.15
2022-11-06T09:20:27.724Z,7.15
2022-11-06T09:22:55.183Z,7.25
2022-11-06T09:25:22.243Z,7.28
2022-11-06T09:27:58.907Z,7.38
2022-11-06T09:30:29.284Z,7.36
2022-11-06T09:32:58.867Z,7.32
2022-11-06T09:35:27.136Z,7.31
2022-11-06T09:37:56.346Z,7.32
2022-11-06T09:40:25.971Z,7.31
2022-11-06T09:43:08.246Z,7.31
2022-11-06T09:45:38.648Z,7.34
2022-11-06T09:48:11.582Z,7.37
2022-11-06T09:50:44.560Z,7.38
2022-11-06T09:53:20.495Z,7.40
2022-11-06T09:55:49.375Z,7.38
2022-11-06T09:58:19.052Z,7.30
2022-11-06T10:00:45.742Z,7.29
2022-11-06T10:03:22.068Z,7.29
2022-11-06T10:05:48.695Z,7.34
2022-11-06T10:08:17.481Z,7.29
2022-11-06T10:11:15.125Z,7.30
2022-11-06T10:13:54.597Z,7.25
2022-11-06T10:16:49.283Z,7.16
2022-11-06T10:20:00.111Z,7.17
2022-11-06T10:23:03.621Z,7.13
2022-11-06T10:25:46.764Z,7.16
2022-11-06T10:28:33.461Z,7.14
2022-11-06T10:31:13.781Z,7.09
2022-11-06T10:33:50.952Z,7.06
2022-11-06T10:36:23.642Z,7.09
2022-11-06T10:38:52.462Z,7.07
2022-11-06T10:41:22.717Z,7.06
2022-11-06T10:44:01.249Z,7.08
2022-11-06T10:46:38.326Z,7.09
2022-11-06T10:49:20.310Z,7.05
2022-11-06T10:52:02.208Z,7.07
2022-11-06T10:55:24.542Z,7.10
2022-11-06T10:58:25.195Z,7.13
2022-11-06T11:00:54.426Z,7.14
2022-11-06T11:03:34.171Z,7.12
2022-11-06T11:06:01.846Z,7.20
2022-11-06T11:08:31.366Z,7.22
2022-11-06T11:11:26.490Z,7.17
2022-11-06T11:13:56.077Z,7.18
2022-11-06T11:16:32.235Z,7.15
2022-11-06T11:19:33.258Z,7.16
2022-11-06T11:22:05.412Z,7.19
2022-11-06T11:24:32.735Z,7.18
2022-11-06T11:27:05.483Z,7.13
2022-11-06T11:29:50.516Z,7.04
2022-11-06T11:32:20.105Z,7.05
2022-11-06T11:34:54.036Z,7.07
2022-11-06T11:37:34.120Z,7.10
2022-11-06T11:40:22.669Z,7.05
2022-11-06T11:42:49.645Z,7.01
2022-11-06T11:45:20.894Z,7.02
2022-11-06T11:47:51.334Z,7.04
2022-11-06T11:50:31.703Z,6.98
2022-11-06T11:53:18.493Z,7.00
2022-11-06T11:55:48.333Z,6.94
2022-11-06T11:58:28.025Z,6.91
2022-11-06T12:00:59.373Z,6.87
2022-11-06T12:03:34.056Z,6.80
2022-11-06T12:06:18.540Z,6.80
2022-11-06T12:08:52.468Z,6.85
2022-11-06T12:11:23.912Z,6.79
2022-11-06T12:14:21.232Z,6.85
2022-11-06T12:16:54.878Z,6.87
2022-11-06T12:19:24.461Z,6.83
2022-11-06T12:22:00.144Z,6.79
2022-11-06T12:25:01.916Z,6.85
2022-11-06T12:27:37.119Z,6.82
2022-11-06T12:30:11.845Z,6.82
2022-11-06T12:33:05.740Z,6.84
2022-11-06T12:35:42.182Z,6.79
2022-11-06T12:39:05.210Z,6.77
2022-11-06T12:41:37.949Z,6.82
2022-11-06T12:44:10.990Z,6.77
2022-11-06T12:47:14.339Z,6.82
2022-11-06T12:50:10.962Z,6.85
2022-11-06T12:53:10.681Z,6.84
2022-11-06T12:56:15.529Z,6.80
2022-11-06T12:59:01.137Z,6.69
2022-11-06T13:01:43.239Z,6.65
2022-11-06T13:04:34.631Z,6.59
2022-11-06T13:07:16.353Z,6.62
2022-11-06T13:09:48.059Z,6.56
2022-11-06T13:12:48.768Z,6.61
2022-11-06T13:15:18.199Z,6.59
2022-11-06T13:17:58.229Z,6.57
2022-11-06T13:20:33.429Z,6.52
2022-11-06T13:23:16.587Z,6.55
2022-11-06T13:25:54.520Z,6.53
2022-11-06T13:29:03.075Z,6.56
2022-11-06T13:31:40.688Z,6.51
2022-11-06T13:34:14.019Z,6.52
2022-11-06T13:36:40.870Z,6.43
2022-11-06T13:39:15.393Z,6.44
2022-11-06T13:41:41.989Z,6.37
2022-11-06T13:44:17.042Z,6.34
2022-11-06T13:47:14.765Z,6.33
2022-11-06T13:49:55.962Z,6.33
2022-11-06T13:52:35.604Z,6.31
2022-11-06T13:55:05.452Z,6.28
2022-11-06T13:57:59.513Z,6.23
2022-11-06T14:00:46.579Z,6.21
2022-11-06T14:03:45.958Z,6.17
2022-11-06T14:06:21.218Z,6.19
2022-11-06T14:08:56.674Z,6.19
2022-11-06T14:11:29.824Z,6.17
2022-11-06T14:14:11.559Z,6.08
2022-11-06T14:16:40.197Z,6.04
2022-11-06T14:19:29.880Z,6.06
2022-11-06T19:20:43.094Z,5.59
2022-11-06T19:23:14.361Z,5.62
2022-11-06T19:25:42.307Z,5.68
2022-11-06T19:28:09.863Z,5.68
2022-11-06T19:30:37.017Z,5.71
2022-11-06T19:33:04.281Z,5.67
2022-11-06T19:35:32.453Z,5.67
2022-11-06T19:37:59.192Z,5.67
2022-11-06T19:40:26.303Z,5.70
2022-11-06T19:42:52.921Z,5.69
2022-11-06T19:45:19.778Z,5.63
2022-11-06T19:47:46.385Z,5.57
2022-11-06T19:50:13.005Z,5.64
2022-11-06T19:52:47.355Z,5.62
2022-11-06T19:55:26.394Z,5.69
2022-11-06T19:57:54.752Z,5.73
2022-11-06T20:00:21.376Z,5.71
2022-11-06T20:02:51.343Z,5.69
2022-11-06T20:05:18.315Z,5.73
2022-11-06T20:07:45.180Z,5.68
2022-11-06T20:10:11.721Z,5.69
2022-11-06T20:12:38.485Z,5.69
2022-11-06T20:15:05.987Z,5.70
2022-11-06T20:17:32.570Z,5.77
2022-11-06T20:19:59.137Z,5.81
2022-11-06T20:22:25.908Z,5.78
2022-11-06T20:24:52.478Z,5.86
2022-11-06T20:27:19.375Z,5.86
2022-11-06T20:29:45.969Z,5.79
2022-11-06T20:32:17.689Z,5.70
2022-11-06T20:34:45.695Z,5.84
2022-11-06T20:37:12.717Z,5.83
2022-11-06T20:39:41.471Z,5.75
2022-11-06T20:42:08.323Z,5.82
2022-11-06T20:44:35.029Z,5.85
2022-11-06T20:47:01.631Z,5.82
2022-11-06T20:49:28.183Z,5.80
2022-11-06T20:52:13.233Z,5.82
2022-11-06T20:54:46.330Z,5.83
2022-11-06T20:57:15.041Z,5.76
2022-11-06T20:59:41.818Z,5.80
2022-11-06T21:02:10.971Z,5.91
2022-11-06T21:04:37.837Z,5.94
2022-11-06T21:07:04.444Z,5.87
2022-11-06T21:09:31.080Z,5.86
2022-11-06T21:11:57.699Z,5.82
2022-11-06T21:14:24.257Z,5.82
2022-11-06T21:16:50.802Z,5.86
2022-11-06T21:19:17.516Z,5.88
2022-11-06T21:21:44.057Z,5.84
2022-11-06T21:24:10.609Z,5.85
2022-11-06T21:26:38.394Z,5.85
2022-11-06T21:29:07.600Z,5.87
2022-11-06T21:31:34.918Z,5.84
2022-11-06T21:34:03.881Z,5.84
2022-11-06T21:36:33.839Z,5.89
2022-11-06T21:39:08.150Z,5.85
2022-11-06T21:41:35.239Z,5.82
2022-11-06T21:44:05.504Z,5.79
2022-11-06T21:46:32.758Z,5.84
2022-11-06T21:48:59.955Z,5.84
2022-11-06T21:51:29.383Z,5.85
2022-11-06T21:54:15.286Z,5.89
2022-11-06T21:56:42.988Z,5.90
2022-11-06T21:59:12.474Z,5.94
2022-11-06T22:01:40.903Z,5.90
2022-11-06T22:04:08.189Z,5.90
2022-11-06T22:06:34.957Z,5.90
2022-11-06T22:09:02.811Z,5.95
2022-11-06T22:11:32.195Z,6.01
2022-11-06T22:14:01.758Z,5.98
2022-11-06T22:16:31.430Z,5.97
2022-11-06T22:18:58.440Z,5.98
2022-11-06T22:21:27.709Z,5.99
2022-11-06T22:23:54.777Z,6.01
2022-11-06T22:26:23.937Z,5.97
2022-11-06T22:28:59.299Z,5.98
2022-11-06T22:31:27.425Z,6.06
2022-11-06T22:33:54.395Z,6.06
2022-11-06T22:36:22.326Z,6.00
2022-11-06T22:38:49.098Z,6.05
2022-11-06T22:41:17.961Z,6.11
2022-11-06T22:43:45.088Z,6.06
2022-11-06T22:46:17.775Z,6.07
2022-11-06T22:48:45.343Z,6.09
2022-11-06T22:51:17.703Z,6.13
2022-11-06T22:53:44.333Z,6.12
2022-11-06T22:56:14.539Z,6.13
2022-11-06T22:58:42.013Z,6.13
2022-11-06T23:01:10.214Z,6.16
2022-11-06T23:03:37.265Z,6.12
2022-11-06T23:06:06.757Z,6.14
2022-11-06T23:08:34.389Z,6.16
2022-11-06T23:11:11.614Z,6.21
2022-11-06T23:13:38.859Z,6.18
2022-11-06T23:16:11.889Z,6.16
2022-11-06T23:18:39.516Z,6.12
2022-11-06T23:21:18.861Z,6.19
2022-11-06T23:23:48.504Z,6.19
2022-11-06T23:26:17.270Z,6.21
2022-11-06T23:28:44.778Z,6.25
2022-11-06T23:31:13.246Z,6.21
2022-11-06T23:33:39.802Z,6.26
2022-11-06T23:36:08.127Z,6.28
2022-11-06T23:38:34.788Z,6.26
2022-11-06T23:41:26.308Z,6.26
2022-11-06T23:43:53.733Z,6.31
2022-11-06T23:46:22.049Z,6.31
2022-11-06T23:48:48.621Z,6.32
2022-11-06T23:51:15.467Z,6.27
2022-11-06T23:53:42.067Z,6.31
2022-11-06T23:56:12.984Z,6.37
2022-11-06T23:58:40.665Z,6.33
